sensor_id;sensor_type;location;lat;lon;timestamp;P1;P2;P0
49064;PMS5003;34876;51.464;-0.150;2022-09-27T00:03:34;11;7;
49064;PMS5003;34876;51.464;-0.150;2022-09-27T00:06:04;7;7;
49064;PMS5003;34876;51.464;-0.150;2022-09-27T00:08:35;8;8;
49064;PMS5003;34876;51.464;-0.150;2022-09-27T00:11:05;4;4;
49064;PMS5003;34876;51.464;-0.150;2022-09-27T00:13:35;6;6;
49064;PMS5003;34876;51.464;-0.150;2022-09-27T00:16:04;10;8;
49064;PMS5003;34876;51.464;-0.150;2022-09-27T00:18:33;7;7;
49064;PMS5003;34876;51.464;-0.150;2022-09-27T00:21:04;4;4;
49064;PMS5003;34876;51.464;-0.150;2022-09-27T00:23:34;6;6;
49064;PMS5003;34876;51.464;-0.150;2022-09-27T00:26:04;7;7;
49064;PMS5003;34876;51.464;-0.150;2022-09-27T00:28:35;6;6;
49064;PMS5003;34876;51.464;-0.150;2022-09-27T00:31:08;6;6;
49064;PMS5003;34876;51.464;-0.150;2022-09-27T00:33:44;7;7;
49064;PMS5003;34876;51.464;-0.150;2022-09-27T00:36:13;7;7;
49064;PMS5003;34876;51.464;-0.150;2022-09-27T00:38:42;6;6;
49064;PMS5003;34876;51.464;-0.150;2022-09-27T00:41:12;7;6;
49064;PMS5003;34876;51.464;-0.150;2022-09-27T00:43:44;5;5;
49064;PMS5003;34876;51.464;-0.150;2022-09-27T00:46:18;9;8;
49064;PMS5003;34876;51.464;-0.150;2022-09-27T00:48:52;11;9;
49064;PMS5003;34876;51.464;-0.150;2022-09-27T00:51:30;6;4;
49064;PMS5003;34876;51.464;-0.150;2022-09-27T00:54:01;6;6;
49064;PMS5003;34876;51.464;-0.150;2022-09-27T00:56:31;5;5;
49064;PMS5003;34876;51.464;-0.150;2022-09-27T00:59:02;10;7;
49064;PMS5003;34876;51.464;-0.150;2022-09-27T01:01:36;9;5;
49064;PMS5003;34876;51.464;-0.150;2022-09-27T01:04:06;7;7;
49064;PMS5003;34876;51.464;-0.150;2022-09-27T01:06:38;9;8;
49064;PMS5003;34876;51.464;-0.150;2022-09-27T01:09:07;5;5;
49064;PMS5003;34876;51.464;-0.150;2022-09-27T01:11:39;10;8;
49064;PMS5003;34876;51.464;-0.150;2022-09-27T01:14:18;4;4;
49064;PMS5003;34876;51.464;-0.150;2022-09-27T01:16:58;5;5;
49064;PMS5003;34876;51.464;-0.150;2022-09-27T01:19:45;8;6;
49064;PMS5003;34876;51.464;-0.150;2022-09-27T01:22:34;8;5;
49064;PMS5003;34876;51.464;-0.150;2022-09-27T01:25:16;4;4;
49064;PMS5003;34876;51.464;-0.150;2022-09-27T01:28:06;5;5;
49064;PMS5003;34876;51.464;-0.150;2022-09-27T01:30:46;6;5;
49064;PMS5003;34876;51.464;-0.150;2022-09-27T01:33:22;6;6;
49064;PMS5003;34876;51.464;-0.150;2022-09-27T01:36:08;6;5;
49064;PMS5003;34876;51.464;-0.150;2022-09-27T01:38:46;4;3;
49064;PMS5003;34876;51.464;-0.150;2022-09-27T01:41:26;3;3;
49064;PMS5003;34876;51.464;-0.150;2022-09-27T01:44:03;3;3;
49064;PMS5003;34876;51.464;-0.150;2022-09-27T01:46:38;5;5;
49064;PMS5003;34876;51.464;-0.150;2022-09-27T01:49:13;4;3;
49064;PMS5003;34876;51.464;-0.150;2022-09-27T01:51:46;4;3;
49064;PMS5003;34876;51.464;-0.150;2022-09-27T01:54:21;3;3;
49064;PMS5003;34876;51.464;-0.150;2022-09-27T01:56:56;6;6;
49064;PMS5003;34876;51.464;-0.150;2022-09-27T01:59:29;4;3;
49064;PMS5003;34876;51.464;-0.150;2022-09-27T02:02:03;6;5;
49064;PMS5003;34876;51.464;-0.150;2022-09-27T02:04:37;5;5;
49064;PMS5003;34876;51.464;-0.150;2022-09-27T02:07:10;3;3;
49064;PMS5003;34876;51.464;-0.150;2022-09-27T02:09:46;3;3;
49064;PMS5003;34876;51.464;-0.150;2022-09-27T02:12:19;5;4;
49064;PMS5003;34876;51.464;-0.150;2022-09-27T02:14:52;4;4;
49064;PMS5003;34876;51.464;-0.150;2022-09-27T02:17:24;5;4;
49064;PMS5003;34876;51.464;-0.150;2022-09-27T02:20:00;5;5;
49064;PMS5003;34876;51.464;-0.150;2022-09-27T02:22:36;6;3;
49064;PMS5003;34876;51.464;-0.150;2022-09-27T02:25:11;3;3;
49064;PMS5003;34876;51.464;-0.150;2022-09-27T02:27:48;4;4;
49064;PMS5003;34876;51.464;-0.150;2022-09-27T02:30:24;2;2;
49064;PMS5003;34876;51.464;-0.150;2022-09-27T02:32:53;3;3;
49064;PMS5003;34876;51.464;-0.150;2022-09-27T02:35:23;4;4;
49064;PMS5003;34876;51.464;-0.150;2022-09-27T02:37:54;5;3;
49064;PMS5003;34876;51.464;-0.150;2022-09-27T02:40:25;4;3;
49064;PMS5003;34876;51.464;-0.150;2022-09-27T02:42:58;3;3;
49064;PMS5003;34876;51.464;-0.150;2022-09-27T02:45:30;5;5;
49064;PMS5003;34876;51.464;-0.150;2022-09-27T02:48:11;5;5;
49064;PMS5003;34876;51.464;-0.150;2022-09-27T02:50:52;5;5;
49064;PMS5003;34876;51.464;-0.150;2022-09-27T02:53:34;7;4;
49064;PMS5003;34876;51.464;-0.150;2022-09-27T02:56:13;6;4;
49064;PMS5003;34876;51.464;-0.150;2022-09-27T02:58:52;6;6;
49064;PMS5003;34876;51.464;-0.150;2022-09-27T03:01:30;5;5;
49064;PMS5003;34876;51.464;-0.150;2022-09-27T03:04:09;5;5;
49064;PMS5003;34876;51.464;-0.150;2022-09-27T03:06:43;5;5;
49064;PMS5003;34876;51.464;-0.150;2022-09-27T03:09:18;4;4;
49064;PMS5003;34876;51.464;-0.150;2022-09-27T03:11:47;6;5;
49064;PMS5003;34876;51.464;-0.150;2022-09-27T03:14:16;3;3;
49064;PMS5003;34876;51.464;-0.150;2022-09-27T03:16:44;5;5;
49064;PMS5003;34876;51.464;-0.150;2022-09-27T03:19:13;6;6;
49064;PMS5003;34876;51.464;-0.150;2022-09-27T03:21:42;5;5;
49064;PMS5003;34876;51.464;-0.150;2022-09-27T03:24:11;3;3;
49064;PMS5003;34876;51.464;-0.150;2022-09-27T03:26:39;3;3;
49064;PMS5003;34876;51.464;-0.150;2022-09-27T03:29:08;6;5;
49064;PMS5003;34876;51.464;-0.150;2022-09-27T03:31:37;6;6;
49064;PMS5003;34876;51.464;-0.150;2022-09-27T03:34:06;3;3;
49064;PMS5003;34876;51.464;-0.150;2022-09-27T03:36:34;5;5;
49064;PMS5003;34876;51.464;-0.150;2022-09-27T03:39:03;5;5;
49064;PMS5003;34876;51.464;-0.150;2022-09-27T03:41:32;5;4;
49064;PMS5003;34876;51.464;-0.150;2022-09-27T03:44:01;4;3;
49064;PMS5003;34876;51.464;-0.150;2022-09-27T03:46:29;4;4;
49064;PMS5003;34876;51.464;-0.150;2022-09-27T03:48:58;2;2;
49064;PMS5003;34876;51.464;-0.150;2022-09-27T03:51:27;3;3;
49064;PMS5003;34876;51.464;-0.150;2022-09-27T03:53:56;3;3;
49064;PMS5003;34876;51.464;-0.150;2022-09-27T03:56:25;4;3;
49064;PMS5003;34876;51.464;-0.150;2022-09-27T03:58:53;4;3;
49064;PMS5003;34876;51.464;-0.150;2022-09-27T04:01:22;3;2;
49064;PMS5003;34876;51.464;-0.150;2022-09-27T04:03:51;3;3;
49064;PMS5003;34876;51.464;-0.150;2022-09-27T04:06:20;3;3;
49064;PMS5003;34876;51.464;-0.150;2022-09-27T04:08:49;4;4;
49064;PMS5003;34876;51.464;-0.150;2022-09-27T04:11:18;2;2;
49064;PMS5003;34876;51.464;-0.150;2022-09-27T04:13:46;5;4;
49064;PMS5003;34876;51.464;-0.150;2022-09-27T04:16:15;2;2;
49064;PMS5003;34876;51.464;-0.150;2022-09-27T04:18:44;5;5;
49064;PMS5003;34876;51.464;-0.150;2022-09-27T04:21:13;4;4;
49064;PMS5003;34876;51.464;-0.150;2022-09-27T04:23:42;4;4;
49064;PMS5003;34876;51.464;-0.150;2022-09-27T04:26:11;4;4;
49064;PMS5003;34876;51.464;-0.150;2022-09-27T04:28:40;5;5;
49064;PMS5003;34876;51.464;-0.150;2022-09-27T04:31:09;3;3;
49064;PMS5003;34876;51.464;-0.150;2022-09-27T04:33:38;4;4;
49064;PMS5003;34876;51.464;-0.150;2022-09-27T04:36:08;8;5;
49064;PMS5003;34876;51.464;-0.150;2022-09-27T04:38:42;6;5;
49064;PMS5003;34876;51.464;-0.150;2022-09-27T04:41:11;4;4;
49064;PMS5003;34876;51.464;-0.150;2022-09-27T04:43:40;4;4;
49064;PMS5003;34876;51.464;-0.150;2022-09-27T04:46:09;7;5;
49064;PMS5003;34876;51.464;-0.150;2022-09-27T04:48:38;3;3;
49064;PMS5003;34876;51.464;-0.150;2022-09-27T04:51:08;5;5;
49064;PMS5003;34876;51.464;-0.150;2022-09-27T04:53:38;5;4;
49064;PMS5003;34876;51.464;-0.150;2022-09-27T04:56:06;7;5;
49064;PMS5003;34876;51.464;-0.150;2022-09-27T04:58:35;5;5;
49064;PMS5003;34876;51.464;-0.150;2022-09-27T05:01:05;3;3;
49064;PMS5003;34876;51.464;-0.150;2022-09-27T05:03:34;3;3;
49064;PMS5003;34876;51.464;-0.150;2022-09-27T05:06:03;4;4;
49064;PMS5003;34876;51.464;-0.150;2022-09-27T05:08:32;4;4;
49064;PMS5003;34876;51.464;-0.150;2022-09-27T05:11:01;2;2;
49064;PMS5003;34876;51.464;-0.150;2022-09-27T05:13:30;4;4;
49064;PMS5003;34876;51.464;-0.150;2022-09-27T05:16:00;4;4;
49064;PMS5003;34876;51.464;-0.150;2022-09-27T05:18:30;4;4;
49064;PMS5003;34876;51.464;-0.150;2022-09-27T05:20:59;4;4;
49064;PMS5003;34876;51.464;-0.150;2022-09-27T05:23:28;5;4;
49064;PMS5003;34876;51.464;-0.150;2022-09-27T05:25:57;7;5;
49064;PMS5003;34876;51.464;-0.150;2022-09-27T05:28:31;4;4;
49064;PMS5003;34876;51.464;-0.150;2022-09-27T05:31:00;3;3;
49064;PMS5003;34876;51.464;-0.150;2022-09-27T05:33:29;6;5;
49064;PMS5003;34876;51.464;-0.150;2022-09-27T05:35:58;4;3;
49064;PMS5003;34876;51.464;-0.150;2022-09-27T05:38:26;4;4;
49064;PMS5003;34876;51.464;-0.150;2022-09-27T05:40:55;7;6;
49064;PMS5003;34876;51.464;-0.150;2022-09-27T05:43:24;4;4;
49064;PMS5003;34876;51.464;-0.150;2022-09-27T05:45:53;2;2;
49064;PMS5003;34876;51.464;-0.150;2022-09-27T05:48:22;2;2;
49064;PMS5003;34876;51.464;-0.150;2022-09-27T05:50:50;4;4;
49064;PMS5003;34876;51.464;-0.150;2022-09-27T05:53:19;5;3;
49064;PMS5003;34876;51.464;-0.150;2022-09-27T05:55:48;3;3;
49064;PMS5003;34876;51.464;-0.150;2022-09-27T05:58:18;4;4;
49064;PMS5003;34876;51.464;-0.150;2022-09-27T06:00:47;2;2;
49064;PMS5003;34876;51.464;-0.150;2022-09-27T06:03:15;4;4;
49064;PMS5003;34876;51.464;-0.150;2022-09-27T06:05:45;4;4;
49064;PMS5003;34876;51.464;-0.150;2022-09-27T06:08:14;3;3;
49064;PMS5003;34876;51.464;-0.150;2022-09-27T06:10:43;3;3;
49064;PMS5003;34876;51.464;-0.150;2022-09-27T06:13:13;5;3;
49064;PMS5003;34876;51.464;-0.150;2022-09-27T06:15:43;4;3;
49064;PMS5003;34876;51.464;-0.150;2022-09-27T06:18:13;3;3;
49064;PMS5003;34876;51.464;-0.150;2022-09-27T06:20:43;3;3;
49064;PMS5003;34876;51.464;-0.150;2022-09-27T06:23:13;4;4;
49064;PMS5003;34876;51.464;-0.150;2022-09-27T06:25:43;3;3;
49064;PMS5003;34876;51.464;-0.150;2022-09-27T06:28:13;5;5;
49064;PMS5003;34876;51.464;-0.150;2022-09-27T06:30:43;2;2;
49064;PMS5003;34876;51.464;-0.150;2022-09-27T06:33:15;5;3;
49064;PMS5003;34876;51.464;-0.150;2022-09-27T06:35:46;4;4;
49064;PMS5003;34876;51.464;-0.150;2022-09-27T06:38:16;3;3;
49064;PMS5003;34876;51.464;-0.150;2022-09-27T06:40:45;4;2;
49064;PMS5003;34876;51.464;-0.150;2022-09-27T06:43:15;3;3;
49064;PMS5003;34876;51.464;-0.150;2022-09-27T06:45:46;5;4;
49064;PMS5003;34876;51.464;-0.150;2022-09-27T06:48:15;2;2;
49064;PMS5003;34876;51.464;-0.150;2022-09-27T06:50:44;3;3;
49064;PMS5003;34876;51.464;-0.150;2022-09-27T06:53:15;5;3;
49064;PMS5003;34876;51.464;-0.150;2022-09-27T06:55:44;5;4;
49064;PMS5003;34876;51.464;-0.150;2022-09-27T06:58:13;3;3;
49064;PMS5003;34876;51.464;-0.150;2022-09-27T07:00:42;4;3;
49064;PMS5003;34876;51.464;-0.150;2022-09-27T07:03:11;4;2;
49064;PMS5003;34876;51.464;-0.150;2022-09-27T07:05:40;4;4;
49064;PMS5003;34876;51.464;-0.150;2022-09-27T07:08:10;4;4;
49064;PMS5003;34876;51.464;-0.150;2022-09-27T07:10:39;4;4;
49064;PMS5003;34876;51.464;-0.150;2022-09-27T07:13:08;2;2;
49064;PMS5003;34876;51.464;-0.150;2022-09-27T07:15:39;3;3;
49064;PMS5003;34876;51.464;-0.150;2022-09-27T07:18:08;3;3;
49064;PMS5003;34876;51.464;-0.150;2022-09-27T07:20:37;3;2;
49064;PMS5003;34876;51.464;-0.150;2022-09-27T07:23:07;4;3;
49064;PMS5003;34876;51.464;-0.150;2022-09-27T07:25:37;4;3;
49064;PMS5003;34876;51.464;-0.150;2022-09-27T07:28:09;3;2;
49064;PMS5003;34876;51.464;-0.150;2022-09-27T07:30:42;3;3;
49064;PMS5003;34876;51.464;-0.150;2022-09-27T07:33:12;1;1;
49064;PMS5003;34876;51.464;-0.150;2022-09-27T07:35:41;3;3;
49064;PMS5003;34876;51.464;-0.150;2022-09-27T07:38:10;3;3;
49064;PMS5003;34876;51.464;-0.150;2022-09-27T07:40:40;2;2;
49064;PMS5003;34876;51.464;-0.150;2022-09-27T07:43:09;2;2;
49064;PMS5003;34876;51.464;-0.150;2022-09-27T07:45:38;4;4;
49064;PMS5003;34876;51.464;-0.150;2022-09-27T07:48:11;2;2;
49064;PMS5003;34876;51.464;-0.150;2022-09-27T07:50:41;2;2;
49064;PMS5003;34876;51.464;-0.150;2022-09-27T07:53:10;3;3;
49064;PMS5003;34876;51.464;-0.150;2022-09-27T07:55:39;3;3;
49064;PMS5003;34876;51.464;-0.150;2022-09-27T07:58:09;2;2;
49064;PMS5003;34876;51.464;-0.150;2022-09-27T08:00:39;1;1;
49064;PMS5003;34876;51.464;-0.150;2022-09-27T08:03:09;6;3;
49064;PMS5003;34876;51.464;-0.150;2022-09-27T08:05:39;3;3;
49064;PMS5003;34876;51.464;-0.150;2022-09-27T08:08:08;3;3;
49064;PMS5003;34876;51.464;-0.150;2022-09-27T08:10:37;4;3;
49064;PMS5003;34876;51.464;-0.150;2022-09-27T08:13:06;1;1;
49064;PMS5003;34876;51.464;-0.150;2022-09-27T08:15:36;3;3;
49064;PMS5003;34876;51.464;-0.150;2022-09-27T08:18:05;2;2;
49064;PMS5003;34876;51.464;-0.150;2022-09-27T08:20:34;4;2;
49064;PMS5003;34876;51.464;-0.150;2022-09-27T08:23:04;3;3;
49064;PMS5003;34876;51.464;-0.150;2022-09-27T08:25:32;5;2;
49064;PMS5003;34876;51.464;-0.150;2022-09-27T08:28:02;1;1;
49064;PMS5003;34876;51.464;-0.150;2022-09-27T08:30:32;1;1;
49064;PMS5003;34876;51.464;-0.150;2022-09-27T08:33:01;2;2;
49064;PMS5003;34876;51.464;-0.150;2022-09-27T08:35:30;3;3;
49064;PMS5003;34876;51.464;-0.150;2022-09-27T08:38:00;1;1;
49064;PMS5003;34876;51.464;-0.150;2022-09-27T08:40:30;4;3;
49064;PMS5003;34876;51.464;-0.150;2022-09-27T08:43:12;1;1;
49064;PMS5003;34876;51.464;-0.150;2022-09-27T08:45:52;1;1;
49064;PMS5003;34876;51.464;-0.150;2022-09-27T08:48:30;2;1;
49064;PMS5003;34876;51.464;-0.150;2022-09-27T08:51:02;5;5;
49064;PMS5003;34876;51.464;-0.150;2022-09-27T08:53:35;2;2;
49064;PMS5003;34876;51.464;-0.150;2022-09-27T08:56:07;3;1;
49064;PMS5003;34876;51.464;-0.150;2022-09-27T08:58:39;2;2;
49064;PMS5003;34876;51.464;-0.150;2022-09-27T09:01:13;3;2;
49064;PMS5003;34876;51.464;-0.150;2022-09-27T09:03:44;1;1;
49064;PMS5003;34876;51.464;-0.150;2022-09-27T09:06:18;3;1;
49064;PMS5003;34876;51.464;-0.150;2022-09-27T09:09:10;1;1;
49064;PMS5003;34876;51.464;-0.150;2022-09-27T09:11:52;4;2;
49064;PMS5003;34876;51.464;-0.150;2022-09-27T09:14:40;2;2;
49064;PMS5003;34876;51.464;-0.150;2022-09-27T09:17:23;0;0;
49064;PMS5003;34876;51.464;-0.150;2022-09-27T09:20:09;2;2;
49064;PMS5003;34876;51.464;-0.150;2022-09-27T09:22:51;2;2;
49064;PMS5003;34876;51.464;-0.150;2022-09-27T09:25:33;2;2;
49064;PMS5003;34876;51.464;-0.150;2022-09-27T09:28:14;3;3;
49064;PMS5003;34876;51.464;-0.150;2022-09-27T09:30:58;1;1;
49064;PMS5003;34876;51.464;-0.150;2022-09-27T09:33:35;2;1;
49064;PMS5003;34876;51.464;-0.150;2022-09-27T09:36:10;1;1;
49064;PMS5003;34876;51.464;-0.150;2022-09-27T09:38:49;2;2;
49064;PMS5003;34876;51.464;-0.150;2022-09-27T09:41:23;0;0;
49064;PMS5003;34876;51.464;-0.150;2022-09-27T09:43:56;0;0;
49064;PMS5003;34876;51.464;-0.150;2022-09-27T09:46:30;1;1;
49064;PMS5003;34876;51.464;-0.150;2022-09-27T09:49:04;1;1;
49064;PMS5003;34876;51.464;-0.150;2022-09-27T09:51:43;3;3;
49064;PMS5003;34876;51.464;-0.150;2022-09-27T09:54:18;2;2;
49064;PMS5003;34876;51.464;-0.150;2022-09-27T09:56:54;0;0;
49064;PMS5003;34876;51.464;-0.150;2022-09-27T09:59:28;1;1;
49064;PMS5003;34876;51.464;-0.150;2022-09-27T10:02:11;4;2;
49064;PMS5003;34876;51.464;-0.150;2022-09-27T10:04:47;2;2;
49064;PMS5003;34876;51.464;-0.150;2022-09-27T10:07:16;3;2;
49064;PMS5003;34876;51.464;-0.150;2022-09-27T10:09:49;0;0;
49064;PMS5003;34876;51.464;-0.150;2022-09-27T10:12:20;3;2;
49064;PMS5003;34876;51.464;-0.150;2022-09-27T10:14:49;2;2;
49064;PMS5003;34876;51.464;-0.150;2022-09-27T10:17:22;0;0;
49064;PMS5003;34876;51.464;-0.150;2022-09-27T10:19:55;0;0;
49064;PMS5003;34876;51.464;-0.150;2022-09-27T10:22:27;1;0;
49064;PMS5003;34876;51.464;-0.150;2022-09-27T10:25:01;0;0;
49064;PMS5003;34876;51.464;-0.150;2022-09-27T10:27:37;2;1;
49064;PMS5003;34876;51.464;-0.150;2022-09-27T10:30:20;0;0;
49064;PMS5003;34876;51.464;-0.150;2022-09-27T10:32:51;1;1;
49064;PMS5003;34876;51.464;-0.150;2022-09-27T10:35:38;1;1;
49064;PMS5003;34876;51.464;-0.150;2022-09-27T10:38:18;3;2;
49064;PMS5003;34876;51.464;-0.150;2022-09-27T10:40:51;2;2;
49064;PMS5003;34876;51.464;-0.150;2022-09-27T10:43:29;2;2;
49064;PMS5003;34876;51.464;-0.150;2022-09-27T10:46:04;1;1;
49064;PMS5003;34876;51.464;-0.150;2022-09-27T10:48:39;2;1;
49064;PMS5003;34876;51.464;-0.150;2022-09-27T10:51:18;1;0;
49064;PMS5003;34876;51.464;-0.150;2022-09-27T10:53:52;1;1;
49064;PMS5003;34876;51.464;-0.150;2022-09-27T10:56:22;2;2;
49064;PMS5003;34876;51.464;-0.150;2022-09-27T10:58:54;0;0;
49064;PMS5003;34876;51.464;-0.150;2022-09-27T11:01:23;0;0;
49064;PMS5003;34876;51.464;-0.150;2022-09-27T11:03:54;0;0;
49064;PMS5003;34876;51.464;-0.150;2022-09-27T11:06:28;0;0;
49064;PMS5003;34876;51.464;-0.150;2022-09-27T11:09:08;3;2;
49064;PMS5003;34876;51.464;-0.150;2022-09-27T11:11:43;2;0;
49064;PMS5003;34876;51.464;-0.150;2022-09-27T11:14:18;1;1;
49064;PMS5003;34876;51.464;-0.150;2022-09-27T11:16:58;0;0;
49064;PMS5003;34876;51.464;-0.150;2022-09-27T11:19:43;2;2;
49064;PMS5003;34876;51.464;-0.150;2022-09-27T11:22:24;1;1;
49064;PMS5003;34876;51.464;-0.150;2022-09-27T11:25:09;1;1;
49064;PMS5003;34876;51.464;-0.150;2022-09-27T11:27:51;0;0;
49064;PMS5003;34876;51.464;-0.150;2022-09-27T11:30:33;2;1;
49064;PMS5003;34876;51.464;-0.150;2022-09-27T11:33:26;1;1;
49064;PMS5003;34876;51.464;-0.150;2022-09-27T11:36:09;1;1;
49064;PMS5003;34876;51.464;-0.150;2022-09-27T11:38:49;2;2;
49064;PMS5003;34876;51.464;-0.150;2022-09-27T11:41:29;1;1;
49064;PMS5003;34876;51.464;-0.150;2022-09-27T11:44:12;1;1;
49064;PMS5003;34876;51.464;-0.150;2022-09-27T11:46:55;1;1;
49064;PMS5003;34876;51.464;-0.150;2022-09-27T11:50:52;2;1;
49064;PMS5003;34876;51.464;-0.150;2022-09-27T11:53:33;1;1;
49064;PMS5003;34876;51.464;-0.150;2022-09-27T11:56:14;1;1;
49064;PMS5003;34876;51.464;-0.150;2022-09-27T11:58:55;3;2;
49064;PMS5003;34876;51.464;-0.150;2022-09-27T12:01:34;1;1;
49064;PMS5003;34876;51.464;-0.150;2022-09-27T12:04:22;1;1;
49064;PMS5003;34876;51.464;-0.150;2022-09-27T12:07:06;2;2;
49064;PMS5003;34876;51.464;-0.150;2022-09-27T12:09:44;2;2;
49064;PMS5003;34876;51.464;-0.150;2022-09-27T12:12:17;2;2;
49064;PMS5003;34876;51.464;-0.150;2022-09-27T12:14:51;2;2;
49064;PMS5003;34876;51.464;-0.150;2022-09-27T12:17:23;1;1;
49064;PMS5003;34876;51.464;-0.150;2022-09-27T12:19:56;1;1;
49064;PMS5003;34876;51.464;-0.150;2022-09-27T12:22:27;1;1;
49064;PMS5003;34876;51.464;-0.150;2022-09-27T12:25:02;1;1;
49064;PMS5003;34876;51.464;-0.150;2022-09-27T12:27:33;1;1;
49064;PMS5003;34876;51.464;-0.150;2022-09-27T12:30:10;0;0;
49064;PMS5003;34876;51.464;-0.150;2022-09-27T12:32:43;0;0;
49064;PMS5003;34876;51.464;-0.150;2022-09-27T12:35:21;2;2;
49064;PMS5003;34876;51.464;-0.150;2022-09-27T12:37:56;1;1;
49064;PMS5003;34876;51.464;-0.150;2022-09-27T12:40:30;2;2;
49064;PMS5003;34876;51.464;-0.150;2022-09-27T12:43:03;1;1;
49064;PMS5003;34876;51.464;-0.150;2022-09-27T12:45:38;2;2;
49064;PMS5003;34876;51.464;-0.150;2022-09-27T12:48:18;0;0;
49064;PMS5003;34876;51.464;-0.150;2022-09-27T12:51:00;5;2;
49064;PMS5003;34876;51.464;-0.150;2022-09-27T12:53:38;0;0;
49064;PMS5003;34876;51.464;-0.150;2022-09-27T12:56:23;1;1;
49064;PMS5003;34876;51.464;-0.150;2022-09-27T12:59:09;1;1;
49064;PMS5003;34876;51.464;-0.150;2022-09-27T13:02:59;0;0;
49064;PMS5003;34876;51.464;-0.150;2022-09-27T13:05:51;0;0;
49064;PMS5003;34876;51.464;-0.150;2022-09-27T13:08:43;1;1;
49064;PMS5003;34876;51.464;-0.150;2022-09-27T13:11:26;2;2;
49064;PMS5003;34876;51.464;-0.150;2022-09-27T13:14:09;2;2;
49064;PMS5003;34876;51.464;-0.150;2022-09-27T13:16:45;0;0;
49064;PMS5003;34876;51.464;-0.150;2022-09-27T13:19:40;1;1;
49064;PMS5003;34876;51.464;-0.150;2022-09-27T13:22:33;1;1;
49064;PMS5003;34876;51.464;-0.150;2022-09-27T13:25:43;2;2;
49064;PMS5003;34876;51.464;-0.150;2022-09-27T13:28:30;1;1;
49064;PMS5003;34876;51.464;-0.150;2022-09-27T13:31:00;3;1;
49064;PMS5003;34876;51.464;-0.150;2022-09-27T13:33:32;0;0;
49064;PMS5003;34876;51.464;-0.150;2022-09-27T13:36:12;2;2;
49064;PMS5003;34876;51.464;-0.150;2022-09-27T13:38:51;2;0;
49064;PMS5003;34876;51.464;-0.150;2022-09-27T13:41:54;2;2;
49064;PMS5003;34876;51.464;-0.150;2022-09-27T13:44:32;1;0;
49064;PMS5003;34876;51.464;-0.150;2022-09-27T13:47:14;0;0;
49064;PMS5003;34876;51.464;-0.150;2022-09-27T13:49:52;1;1;
49064;PMS5003;34876;51.464;-0.150;2022-09-27T13:52:27;2;1;
49064;PMS5003;34876;51.464;-0.150;2022-09-27T13:55:01;1;0;
49064;PMS5003;34876;51.464;-0.150;2022-09-27T13:57:41;1;0;
49064;PMS5003;34876;51.464;-0.150;2022-09-27T14:00:15;2;1;
49064;PMS5003;34876;51.464;-0.150;2022-09-27T14:03:19;2;1;
49064;PMS5003;34876;51.464;-0.150;2022-09-27T14:05:54;2;2;
49064;PMS5003;34876;51.464;-0.150;2022-09-27T14:08:28;1;1;
49064;PMS5003;34876;51.464;-0.150;2022-09-27T14:11:02;2;2;
49064;PMS5003;34876;51.464;-0.150;2022-09-27T14:13:37;1;1;
49064;PMS5003;34876;51.464;-0.150;2022-09-27T14:16:12;0;0;
49064;PMS5003;34876;51.464;-0.150;2022-09-27T14:18:44;1;1;
49064;PMS5003;34876;51.464;-0.150;2022-09-27T14:21:17;0;0;
49064;PMS5003;34876;51.464;-0.150;2022-09-27T14:24:15;1;1;
49064;PMS5003;34876;51.464;-0.150;2022-09-27T14:26:50;1;1;
49064;PMS5003;34876;51.464;-0.150;2022-09-27T14:29:31;0;0;
49064;PMS5003;34876;51.464;-0.150;2022-09-27T14:32:08;2;0;
49064;PMS5003;34876;51.464;-0.150;2022-09-27T14:34:39;1;1;
49064;PMS5003;34876;51.464;-0.150;2022-09-27T14:37:23;1;1;
49064;PMS5003;34876;51.464;-0.150;2022-09-27T14:39:54;1;0;
49064;PMS5003;34876;51.464;-0.150;2022-09-27T14:42:25;3;0;
49064;PMS5003;34876;51.464;-0.150;2022-09-27T14:44:56;1;1;
49064;PMS5003;34876;51.464;-0.150;2022-09-27T14:47:30;0;0;
49064;PMS5003;34876;51.464;-0.150;2022-09-27T14:50:00;0;0;
49064;PMS5003;34876;51.464;-0.150;2022-09-27T14:52:38;0;0;
49064;PMS5003;34876;51.464;-0.150;2022-09-27T14:55:08;1;0;
49064;PMS5003;34876;51.464;-0.150;2022-09-27T14:57:44;1;1;
49064;PMS5003;34876;51.464;-0.150;2022-09-27T15:00:15;1;1;
49064;PMS5003;34876;51.464;-0.150;2022-09-27T15:02:47;1;1;
49064;PMS5003;34876;51.464;-0.150;2022-09-27T15:05:20;1;1;
49064;PMS5003;34876;51.464;-0.150;2022-09-27T15:07:51;1;1;
49064;PMS5003;34876;51.464;-0.150;2022-09-27T15:10:21;0;0;
49064;PMS5003;34876;51.464;-0.150;2022-09-27T15:12:52;1;1;
49064;PMS5003;34876;51.464;-0.150;2022-09-27T15:15:23;1;1;
49064;PMS5003;34876;51.464;-0.150;2022-09-27T15:17:54;3;3;
49064;PMS5003;34876;51.464;-0.150;2022-09-27T15:20:24;1;1;
49064;PMS5003;34876;51.464;-0.150;2022-09-27T15:22:55;0;0;
49064;PMS5003;34876;51.464;-0.150;2022-09-27T15:25:26;2;2;
49064;PMS5003;34876;51.464;-0.150;2022-09-27T15:27:59;0;0;
49064;PMS5003;34876;51.464;-0.150;2022-09-27T15:30:33;1;0;
49064;PMS5003;34876;51.464;-0.150;2022-09-27T15:33:04;0;0;
49064;PMS5003;34876;51.464;-0.150;2022-09-27T15:35:34;0;0;
49064;PMS5003;34876;51.464;-0.150;2022-09-27T15:38:12;3;2;
49064;PMS5003;34876;51.464;-0.150;2022-09-27T15:40:58;1;1;
49064;PMS5003;34876;51.464;-0.150;2022-09-27T15:43:37;1;1;
49064;PMS5003;34876;51.464;-0.150;2022-09-27T15:46:26;0;0;
49064;PMS5003;34876;51.464;-0.150;2022-09-27T15:49:32;2;2;
49064;PMS5003;34876;51.464;-0.150;2022-09-27T15:52:02;2;2;
49064;PMS5003;34876;51.464;-0.150;2022-09-27T15:54:31;2;1;
49064;PMS5003;34876;51.464;-0.150;2022-09-27T15:57:01;0;0;
49064;PMS5003;34876;51.464;-0.150;2022-09-27T15:59:32;0;0;
49064;PMS5003;34876;51.464;-0.150;2022-09-27T16:02:08;1;1;
49064;PMS5003;34876;51.464;-0.150;2022-09-27T16:04:41;2;2;
49064;PMS5003;34876;51.464;-0.150;2022-09-27T16:07:11;2;2;
49064;PMS5003;34876;51.464;-0.150;2022-09-27T16:09:41;0;0;
49064;PMS5003;34876;51.464;-0.150;2022-09-27T16:12:10;0;0;
49064;PMS5003;34876;51.464;-0.150;2022-09-27T16:14:40;0;0;
49064;PMS5003;34876;51.464;-0.150;2022-09-27T16:17:09;1;1;
49064;PMS5003;34876;51.464;-0.150;2022-09-27T16:19:38;2;2;
49064;PMS5003;34876;51.464;-0.150;2022-09-27T16:22:07;1;1;
49064;PMS5003;34876;51.464;-0.150;2022-09-27T16:24:35;1;1;
49064;PMS5003;34876;51.464;-0.150;2022-09-27T16:27:04;1;1;
49064;PMS5003;34876;51.464;-0.150;2022-09-27T16:29:34;1;1;
49064;PMS5003;34876;51.464;-0.150;2022-09-27T16:32:03;2;2;
49064;PMS5003;34876;51.464;-0.150;2022-09-27T16:34:32;1;1;
49064;PMS5003;34876;51.464;-0.150;2022-09-27T16:37:01;2;2;
49064;PMS5003;34876;51.464;-0.150;2022-09-27T16:39:30;1;1;
49064;PMS5003;34876;51.464;-0.150;2022-09-27T16:41:59;2;1;
49064;PMS5003;34876;51.464;-0.150;2022-09-27T16:44:28;0;0;
49064;PMS5003;34876;51.464;-0.150;2022-09-27T16:46:56;1;1;
49064;PMS5003;34876;51.464;-0.150;2022-09-27T16:49:25;0;0;
49064;PMS5003;34876;51.464;-0.150;2022-09-27T16:51:54;1;1;
49064;PMS5003;34876;51.464;-0.150;2022-09-27T16:54:23;0;0;
49064;PMS5003;34876;51.464;-0.150;2022-09-27T16:56:53;0;0;
49064;PMS5003;34876;51.464;-0.150;2022-09-27T16:59:22;0;0;
49064;PMS5003;34876;51.464;-0.150;2022-09-27T17:01:51;1;1;
49064;PMS5003;34876;51.464;-0.150;2022-09-27T17:04:21;1;1;
49064;PMS5003;34876;51.464;-0.150;2022-09-27T17:06:49;1;1;
49064;PMS5003;34876;51.464;-0.150;2022-09-27T17:09:19;1;1;
49064;PMS5003;34876;51.464;-0.150;2022-09-27T17:11:48;0;0;
49064;PMS5003;34876;51.464;-0.150;2022-09-27T17:14:18;1;1;
49064;PMS5003;34876;51.464;-0.150;2022-09-27T17:16:47;2;2;
49064;PMS5003;34876;51.464;-0.150;2022-09-27T17:19:16;1;1;
49064;PMS5003;34876;51.464;-0.150;2022-09-27T17:21:45;1;1;